Time;durP1;ratioP1;P1;durP2;ratioP2;P2;SDS_P1;SDS_P2;PMS_P1;PMS_P2;Temp;Humidity;BMP_temperature;BMP_pressure;BME280_temperature;BME280_humidity;BME280_pressure;Samples;Min_cycle;Max_cycle;Signal;HPM_P1;HPM_P2
2022/09/13 00:01:03;;;;;;;;;;;17.40;99.90;;;;;;5073146;28;20385;-57
2022/09/13 00:03:29;;;;;;;;;;;17.40;99.90;;;;;;5073550;28;19982;-57
2022/09/13 00:05:55;;;;;;;;;;;17.40;99.90;;;;;;5072771;28;19967;-57
2022/09/13 00:08:21;;;;;;;;;;;17.40;99.90;;;;;;5073460;28;19946;-57
2022/09/13 00:10:46;;;;;;;;;;;17.30;99.90;;;;;;5073707;28;19922;-57
2022/09/13 00:13:13;;;;;;;;;;;17.40;99.90;;;;;;5073558;28;19920;-57
2022/09/13 00:15:49;;;;;;;;;;;17.40;99.90;;;;;;5072889;28;19973;-57
2022/09/13 00:18:15;;;;;;;;;;;17.30;99.90;;;;;;5072733;28;19920;-57
2022/09/13 00:20:40;;;;;;;;;;;17.40;99.90;;;;;;5073491;28;20031;-57
2022/09/13 00:23:06;;;;;;;;;;;17.30;99.90;;;;;;5073473;28;20015;-57
2022/09/13 00:25:31;;;;;;;;;;;17.30;99.90;;;;;;5073314;28;20290;-57
2022/09/13 00:27:57;;;;;;;;;;;17.30;99.90;;;;;;5073349;28;19921;-57
2022/09/13 00:30:22;;;;;;;;;;;17.30;99.90;;;;;;5072829;28;19971;-56
2022/09/13 00:32:48;;;;;;;;;;;17.30;99.90;;;;;;5072705;28;20383;-57
2022/09/13 00:35:14;;;;;;;;;;;17.30;99.90;;;;;;5078542;28;19920;-57
2022/09/13 00:37:39;;;;;;;;;;;17.30;99.90;;;;;;5061321;28;19921;-57
2022/09/13 00:40:05;;;;;;;;;;;17.30;99.90;;;;;;5072918;28;20054;-57
2022/09/13 00:42:34;;;;;;;;;;;17.30;99.90;;;;;;5072896;28;19921;-57
2022/09/13 00:45:05;;;;;;;;;;;17.30;99.90;;;;;;5072634;28;20370;-57
2022/09/13 00:47:36;;;;;;;;;;;17.30;99.90;;;;;;5072534;28;19920;-57
2022/09/13 00:50:22;;;;;;;;;;;17.30;99.90;;;;;;5072908;28;20014;-57
2022/09/13 00:53:04;;;;;;;;;;;17.30;99.90;;;;;;5071818;28;19921;-57
2022/09/13 00:55:33;;;;;;;;;;;17.30;99.90;;;;;;5072799;28;19920;-61
2022/09/13 00:58:01;;;;;;;;;;;17.20;99.90;;;;;;5072363;28;19920;-59
2022/09/13 01:00:27;;;;;;;;;;;17.30;99.90;;;;;;5072639;28;20396;-61
2022/09/13 01:02:56;;;;;;;;;;;17.20;99.90;;;;;;5072299;28;19920;-61
2022/09/13 01:05:23;;;;;;;;;;;17.30;99.90;;;;;;5072907;28;19916;-65
2022/09/13 01:07:49;;;;;;;;;;;17.20;99.90;;;;;;5072770;28;19967;-65
2022/09/13 01:10:15;;;;;;;;;;;17.30;99.90;;;;;;5072395;28;20297;-59
2022/09/13 01:12:51;;;;;;;;;;;17.20;99.90;;;;;;5072469;28;19924;-61
2022/09/13 01:15:17;;;;;;;;;;;17.20;99.90;;;;;;5072210;28;20011;-58
2022/09/13 01:17:43;;;;;;;;;;;17.20;99.90;;;;;;5046226;28;20007;-60
2022/09/13 01:20:09;;;;;;;;;;;17.20;99.90;;;;;;5072288;28;19928;-57
2022/09/13 01:22:35;;;;;;;;;;;17.20;99.90;;;;;;5072337;28;19920;-57
2022/09/13 01:25:00;;;;;;;;;;;17.20;99.90;;;;;;5072472;28;20381;-57
2022/09/13 01:27:34;;;;;;;;;;;17.20;99.90;;;;;;5072158;28;19921;-57
2022/09/13 01:30:07;;;;;;;;;;;17.20;99.90;;;;;;5071970;28;19974;-57
2022/09/13 01:32:46;;;;;;;;;;;17.20;99.90;;;;;;5071440;28;20285;-57
2022/09/13 01:35:15;;;;;;;;;;;17.20;99.90;;;;;;5072211;28;19924;-57
2022/09/13 01:37:46;;;;;;;;;;;17.20;99.90;;;;;;5054426;28;19930;-57
2022/09/13 01:40:18;;;;;;;;;;;17.20;99.90;;;;;;5043353;28;20010;-57
2022/09/13 01:42:54;;;;;;;;;;;17.20;99.90;;;;;;5054094;28;19931;-57
2022/09/13 01:45:22;;;;;;;;;;;17.20;99.90;;;;;;5072568;28;19925;-57
2022/09/13 01:47:47;;;;;;;;;;;17.20;99.90;;;;;;5072040;28;20397;-56
2022/09/13 01:50:16;;;;;;;;;;;17.20;99.90;;;;;;5071320;28;19924;-57
2022/09/13 01:52:49;;;;;;;;;;;17.20;99.90;;;;;;5071736;28;19967;-57
2022/09/13 01:55:18;;;;;;;;;;;17.20;99.90;;;;;;5072321;28;19970;-57
2022/09/13 01:58:03;;;;;;;;;;;17.20;99.90;;;;;;5055961;28;20375;-57
2022/09/13 02:00:33;;;;;;;;;;;17.20;99.90;;;;;;5071549;28;19962;-57
2022/09/13 02:03:10;;;;;;;;;;;17.20;99.90;;;;;;5072180;28;20016;-57
2022/09/13 02:05:44;;;;;;;;;;;17.20;99.90;;;;;;5071735;28;19928;-57
2022/09/13 02:08:28;;;;;;;;;;;17.20;99.90;;;;;;5072080;28;19920;-57
2022/09/13 02:10:59;;;;;;;;;;;17.20;99.90;;;;;;5071847;28;20382;-57
2022/09/13 02:13:27;;;;;;;;;;;17.20;99.90;;;;;;5072134;28;19921;-57
2022/09/13 02:15:56;;;;;;;;;;;17.20;99.90;;;;;;5072236;28;19964;-57
2022/09/13 02:18:27;;;;;;;;;;;17.20;99.90;;;;;;5064244;28;19927;-57
2022/09/13 02:20:57;;;;;;;;;;;17.20;99.90;;;;;;5071556;28;20347;-57
2022/09/13 02:23:25;;;;;;;;;;;17.20;99.90;;;;;;5071480;28;19920;-57
2022/09/13 02:25:51;;;;;;;;;;;17.10;99.90;;;;;;5072103;28;19929;-57
2022/09/13 02:28:19;;;;;;;;;;;17.20;99.90;;;;;;5074022;28;20417;-57
2022/09/13 02:30:47;;;;;;;;;;;17.10;99.90;;;;;;5075014;28;20382;-57
2022/09/13 02:33:16;;;;;;;;;;;17.20;99.90;;;;;;5075369;28;19967;-57
2022/09/13 02:35:57;;;;;;;;;;;17.10;99.90;;;;;;5073396;28;19978;-57
2022/09/13 02:38:26;;;;;;;;;;;17.10;99.90;;;;;;5064295;28;20577;-57
2022/09/13 02:41:05;;;;;;;;;;;17.10;99.90;;;;;;5075354;28;19928;-57
2022/09/13 02:43:34;;;;;;;;;;;17.10;99.90;;;;;;5075334;28;19920;-57
2022/09/13 02:46:20;;;;;;;;;;;17.10;99.90;;;;;;5056485;28;20370;-57
2022/09/13 02:49:03;;;;;;;;;;;17.00;99.90;;;;;;5032879;28;19920;-57
2022/09/13 02:51:33;;;;;;;;;;;17.00;99.90;;;;;;5075132;28;19943;-57
2022/09/13 02:54:01;;;;;;;;;;;17.00;99.90;;;;;;5075146;28;19917;-57
2022/09/13 02:56:30;;;;;;;;;;;17.00;99.90;;;;;;5075082;28;19925;-57
2022/09/13 02:58:59;;;;;;;;;;;17.10;99.90;;;;;;5074731;28;20706;-57
2022/09/13 03:01:25;;;;;;;;;;;17.10;99.90;;;;;;5074407;28;20429;-57
2022/09/13 03:03:52;;;;;;;;;;;17.10;99.90;;;;;;5073950;28;20054;-57
2022/09/13 03:06:22;;;;;;;;;;;17.10;99.90;;;;;;5074739;28;20301;-56
2022/09/13 03:08:48;;;;;;;;;;;17.10;99.90;;;;;;5074804;28;20010;-57
2022/09/13 03:11:17;;;;;;;;;;;17.10;99.90;;;;;;5074665;28;20378;-57
2022/09/13 03:13:43;;;;;;;;;;;17.10;99.90;;;;;;5058114;28;19972;-57
2022/09/13 03:16:23;;;;;;;;;;;17.20;99.90;;;;;;5074448;28;20419;-57
2022/09/13 03:19:03;;;;;;;;;;;17.20;99.90;;;;;;5065745;28;19920;-57
2022/09/13 03:21:46;;;;;;;;;;;17.20;99.90;;;;;;5074630;28;19977;-57
2022/09/13 03:24:21;;;;;;;;;;;17.20;99.90;;;;;;5074406;28;19920;-57
2022/09/13 03:26:46;;;;;;;;;;;17.20;99.90;;;;;;5074434;28;19920;-57
2022/09/13 03:29:21;;;;;;;;;;;17.20;99.90;;;;;;5074424;28;19943;-56
2022/09/13 03:32:15;;;;;;;;;;;17.20;99.90;;;;;;5058690;28;19924;-57
2022/09/13 03:35:16;;;;;;;;;;;17.20;99.90;;;;;;5073793;28;20048;-57
2022/09/13 03:38:00;;;;;;;;;;;17.20;99.90;;;;;;4981085;28;19921;-57
2022/09/13 03:40:48;;;;;;;;;;;17.20;99.90;;;;;;5057277;28;19921;-57
2022/09/13 03:43:21;;;;;;;;;;;17.20;99.90;;;;;;5074163;28;19930;-63
2022/09/13 03:45:49;;;;;;;;;;;17.20;99.90;;;;;;5058575;28;19920;-67
2022/09/13 03:48:15;;;;;;;;;;;17.10;99.90;;;;;;5073068;28;19973;-65
2022/09/13 03:50:41;;;;;;;;;;;17.10;99.90;;;;;;5073789;28;20069;-57
2022/09/13 03:53:09;;;;;;;;;;;17.10;99.90;;;;;;5074207;28;19973;-57
2022/09/13 03:55:38;;;;;;;;;;;17.10;99.90;;;;;;5073294;28;20424;-57
2022/09/13 03:58:03;;;;;;;;;;;17.00;99.90;;;;;;5073594;28;20393;-57
2022/09/13 04:00:29;;;;;;;;;;;17.00;99.90;;;;;;5073568;28;19966;-58
2022/09/13 04:02:54;;;;;;;;;;;17.00;99.90;;;;;;5072955;28;19920;-58
2022/09/13 04:05:20;;;;;;;;;;;17.10;99.90;;;;;;5056023;28;19920;-57
2022/09/13 04:07:46;;;;;;;;;;;17.10;99.90;;;;;;5073594;28;19927;-57
2022/09/13 04:10:11;;;;;;;;;;;17.10;99.90;;;;;;5073903;28;19981;-58
2022/09/13 04:12:37;;;;;;;;;;;17.10;99.90;;;;;;5073445;28;19924;-57
2022/09/13 04:15:03;;;;;;;;;;;17.10;99.90;;;;;;5073608;28;20429;-57
2022/09/13 04:17:29;;;;;;;;;;;17.10;99.90;;;;;;5072971;28;19921;-56
2022/09/13 04:19:54;;;;;;;;;;;17.10;99.90;;;;;;5055304;28;20301;-57
2022/09/13 04:22:20;;;;;;;;;;;17.30;99.90;;;;;;5073259;28;19920;-57
2022/09/13 04:24:45;;;;;;;;;;;17.20;99.90;;;;;;5055696;28;19928;-57
2022/09/13 04:27:11;;;;;;;;;;;17.10;99.90;;;;;;5072989;28;20003;-57
2022/09/13 04:29:37;;;;;;;;;;;17.20;99.90;;;;;;5051640;28;19921;-57
2022/09/13 04:32:02;;;;;;;;;;;17.20;99.90;;;;;;5052243;28;19920;-57
2022/09/13 04:34:28;;;;;;;;;;;17.20;99.90;;;;;;5052916;28;19921;-57
2022/09/13 04:36:54;;;;;;;;;;;17.20;99.90;;;;;;5049870;28;19929;-57
2022/09/13 04:39:20;;;;;;;;;;;17.20;99.90;;;;;;5050141;28;20011;-57
2022/09/13 04:41:47;;;;;;;;;;;17.20;99.90;;;;;;5053122;28;19920;-57
2022/09/13 04:44:13;;;;;;;;;;;17.20;99.90;;;;;;5052859;28;19921;-57
2022/09/13 04:46:39;;;;;;;;;;;17.10;99.90;;;;;;5051905;28;19925;-57
2022/09/13 04:49:04;;;;;;;;;;;17.10;99.90;;;;;;5051683;28;19975;-57
2022/09/13 04:51:30;;;;;;;;;;;17.00;99.90;;;;;;5052673;28;19975;-57
2022/09/13 04:53:56;;;;;;;;;;;17.00;99.90;;;;;;5052776;28;19924;-57
2022/09/13 04:56:22;;;;;;;;;;;17.00;99.90;;;;;;5052446;28;20290;-57
2022/09/13 04:58:49;;;;;;;;;;;17.00;99.90;;;;;;5052207;28;20359;-57
2022/09/13 05:01:15;;;;;;;;;;;17.00;99.90;;;;;;5052077;28;19975;-57
2022/09/13 05:03:41;;;;;;;;;;;17.00;99.90;;;;;;5052416;28;19924;-57
2022/09/13 05:06:07;;;;;;;;;;;17.00;99.90;;;;;;5053008;28;19971;-57
2022/09/13 05:08:33;;;;;;;;;;;17.00;99.90;;;;;;5052454;28;19928;-57
2022/09/13 05:10:59;;;;;;;;;;;17.00;99.90;;;;;;5052783;28;19932;-57
2022/09/13 05:13:25;;;;;;;;;;;17.00;99.90;;;;;;5052698;28;19920;-57
2022/09/13 05:15:57;;;;;;;;;;;17.00;99.90;;;;;;5050558;28;19928;-57
2022/09/13 05:18:29;;;;;;;;;;;17.10;99.90;;;;;;5037695;28;19929;-57
2022/09/13 05:20:55;;;;;;;;;;;17.10;99.90;;;;;;5046375;28;19966;-57
2022/09/13 05:23:21;;;;;;;;;;;17.10;99.90;;;;;;5052530;28;19921;-57
2022/09/13 05:25:53;;;;;;;;;;;17.00;99.90;;;;;;5052203;28;19973;-57
2022/09/13 05:28:20;;;;;;;;;;;17.00;99.90;;;;;;5051519;28;19925;-57
2022/09/13 05:30:53;;;;;;;;;;;17.00;99.90;;;;;;5065904;28;19920;-57
2022/09/13 05:33:18;;;;;;;;;;;17.00;99.90;;;;;;5067872;28;19920;-57
2022/09/13 05:35:44;;;;;;;;;;;17.00;99.90;;;;;;5069112;28;19920;-57
2022/09/13 05:38:09;;;;;;;;;;;17.00;99.90;;;;;;5045572;28;19931;-57
2022/09/13 05:40:35;;;;;;;;;;;17.00;99.90;;;;;;5064700;28;19920;-57
2022/09/13 05:43:00;;;;;;;;;;;17.00;99.90;;;;;;5062825;28;19924;-58
2022/09/13 05:45:26;;;;;;;;;;;17.00;99.90;;;;;;5065053;28;19931;-57
2022/09/13 05:47:51;;;;;;;;;;;17.00;99.90;;;;;;5063189;28;19920;-58
2022/09/13 05:50:17;;;;;;;;;;;17.00;99.90;;;;;;5061411;28;19928;-64
2022/09/13 05:52:42;;;;;;;;;;;17.00;99.90;;;;;;5065530;28;20381;-60
2022/09/13 05:55:08;;;;;;;;;;;17.00;99.90;;;;;;5054879;28;20398;-62
2022/09/13 05:57:35;;;;;;;;;;;17.00;99.90;;;;;;5063539;28;19920;-66
2022/09/13 06:00:00;;;;;;;;;;;17.00;99.90;;;;;;5062910;28;19924;-64
2022/09/13 06:02:26;;;;;;;;;;;17.00;99.90;;;;;;5064021;28;19952;-60
2022/09/13 06:04:52;;;;;;;;;;;17.00;99.90;;;;;;5058820;28;19975;-66
2022/09/13 06:07:17;;;;;;;;;;;17.00;99.90;;;;;;5059154;28;19966;-62
2022/09/13 06:09:43;;;;;;;;;;;17.00;99.90;;;;;;5059761;28;19973;-63
2022/09/13 06:12:08;;;;;;;;;;;17.00;99.90;;;;;;5060589;28;19920;-66
2022/09/13 06:14:34;;;;;;;;;;;17.00;99.90;;;;;;5065307;28;20420;-66
2022/09/13 06:16:59;;;;;;;;;;;17.00;99.90;;;;;;5071274;28;19924;-66
2022/09/13 06:19:25;;;;;;;;;;;17.00;99.90;;;;;;5068943;28;19920;-66
2022/09/13 06:21:50;;;;;;;;;;;17.20;99.90;;;;;;5075052;28;20018;-61
2022/09/13 06:24:16;;;;;;;;;;;17.20;99.90;;;;;;5074988;28;20025;-66
2022/09/13 06:26:41;;;;;;;;;;;17.20;99.90;;;;;;5074254;28;19970;-62
2022/09/13 06:29:09;;;;;;;;;;;17.20;99.90;;;;;;5075183;28;19927;-66
2022/09/13 06:31:37;;;;;;;;;;;17.30;99.90;;;;;;5074322;28;20592;-66
2022/09/13 06:34:04;;;;;;;;;;;17.30;99.90;;;;;;5072489;28;19960;-57
2022/09/13 06:36:30;;;;;;;;;;;17.30;99.90;;;;;;5063910;28;19974;-57
2022/09/13 06:38:56;;;;;;;;;;;17.40;99.90;;;;;;5067955;28;20051;-57
2022/09/13 06:41:22;;;;;;;;;;;17.40;99.90;;;;;;5061501;28;19928;-57
2022/09/13 06:43:55;;;;;;;;;;;17.60;99.90;;;;;;5047358;28;20328;-57
2022/09/13 06:46:20;;;;;;;;;;;17.60;99.90;;;;;;5069558;28;19920;-57
2022/09/13 06:48:47;;;;;;;;;;;17.70;99.90;;;;;;5074158;28;19926;-56
2022/09/13 06:51:14;;;;;;;;;;;17.80;99.90;;;;;;5072615;28;20358;-57
2022/09/13 06:53:40;;;;;;;;;;;17.80;99.90;;;;;;5073687;28;19971;-57
2022/09/13 06:56:07;;;;;;;;;;;17.90;99.90;;;;;;5073657;28;19991;-57
2022/09/13 06:58:33;;;;;;;;;;;17.80;99.90;;;;;;5064124;28;19920;-57
2022/09/13 07:01:10;;;;;;;;;;;17.90;99.90;;;;;;5056657;28;19924;-56
2022/09/13 07:03:40;;;;;;;;;;;18.10;99.90;;;;;;5074462;28;19932;-57
2022/09/13 07:06:06;;;;;;;;;;;18.00;99.90;;;;;;5040393;28;19924;-57
2022/09/13 07:08:33;;;;;;;;;;;18.10;99.90;;;;;;5074677;28;19927;-56
2022/09/13 07:10:59;;;;;;;;;;;18.30;99.90;;;;;;5074636;28;20412;-57
2022/09/13 07:13:24;;;;;;;;;;;18.40;99.90;;;;;;5074227;28;19928;-57
2022/09/13 07:15:50;;;;;;;;;;;18.60;99.90;;;;;;5074854;28;19920;-57
2022/09/13 07:18:15;;;;;;;;;;;19.00;99.90;;;;;;5067313;28;20397;-57
2022/09/13 07:20:41;;;;;;;;;;;19.20;99.90;;;;;;5039762;28;19928;-57
2022/09/13 07:23:06;;;;;;;;;;;19.30;99.90;;;;;;5056575;28;19924;-57
2022/09/13 07:25:32;;;;;;;;;;;19.40;99.90;;;;;;5073893;28;19995;-57
2022/09/13 07:27:57;;;;;;;;;;;19.30;99.90;;;;;;5073952;28;19920;-57
2022/09/13 07:30:25;;;;;;;;;;;19.20;99.90;;;;;;5074083;28;19921;-57
2022/09/13 07:32:51;;;;;;;;;;;19.30;99.90;;;;;;5073593;28;20112;-57
2022/09/13 07:35:16;;;;;;;;;;;19.20;99.90;;;;;;5073656;28;19976;-57
2022/09/13 07:37:44;;;;;;;;;;;19.30;99.90;;;;;;5070990;28;19931;-57
2022/09/13 07:40:10;;;;;;;;;;;19.10;99.90;;;;;;5064125;28;19928;-57
2022/09/13 07:42:35;;;;;;;;;;;19.00;99.90;;;;;;5066604;28;19920;-57
2022/09/13 07:45:01;;;;;;;;;;;19.10;99.90;;;;;;5065611;28;20029;-57
2022/09/13 07:47:26;;;;;;;;;;;19.20;99.90;;;;;;5066171;28;19965;-57
2022/09/13 07:49:52;;;;;;;;;;;19.10;99.90;;;;;;5073362;28;19927;-57
2022/09/13 07:52:17;;;;;;;;;;;19.20;99.90;;;;;;5055339;28;19983;-57
2022/09/13 07:54:43;;;;;;;;;;;19.30;99.90;;;;;;5073510;28;20354;-57
2022/09/13 07:57:08;;;;;;;;;;;19.40;99.90;;;;;;5073382;28;20266;-57
2022/09/13 07:59:34;;;;;;;;;;;19.50;99.90;;;;;;5073835;28;19930;-57
2022/09/13 08:01:59;;;;;;;;;;;19.60;99.90;;;;;;5062424;28;19921;-57
2022/09/13 08:04:25;;;;;;;;;;;19.50;99.90;;;;;;5073524;28;19923;-57
2022/09/13 08:06:51;;;;;;;;;;;19.40;99.90;;;;;;5073348;28;19928;-57
2022/09/13 08:09:17;;;;;;;;;;;19.00;99.90;;;;;;5073586;28;19927;-57
2022/09/13 08:11:51;;;;;;;;;;;18.80;99.90;;;;;;5073806;28;19924;-57
2022/09/13 08:14:18;;;;;;;;;;;18.70;99.90;;;;;;5073061;28;20358;-57
2022/09/13 08:16:44;;;;;;;;;;;18.60;99.90;;;;;;5072323;28;19998;-57
2022/09/13 08:19:11;;;;;;;;;;;18.90;99.90;;;;;;5073211;28;20290;-57
2022/09/13 08:21:38;;;;;;;;;;;19.10;99.90;;;;;;5060176;28;20377;-57
2022/09/13 08:24:04;;;;;;;;;;;19.40;99.90;;;;;;5062540;28;19921;-57
2022/09/13 08:26:31;;;;;;;;;;;19.70;99.90;;;;;;5061790;28;19924;-57
2022/09/13 08:28:58;;;;;;;;;;;20.10;99.90;;;;;;5063936;28;19921;-57
2022/09/13 08:31:24;;;;;;;;;;;20.10;99.90;;;;;;5065200;28;19925;-57
2022/09/13 08:33:50;;;;;;;;;;;20.30;99.90;;;;;;5065282;28;20334;-57
2022/09/13 08:36:16;;;;;;;;;;;20.60;99.90;;;;;;5061751;28;19975;-57
2022/09/13 08:38:50;;;;;;;;;;;21.00;99.90;;;;;;5049828;28;19950;-56
2022/09/13 08:41:34;;;;;;;;;;;21.10;99.90;;;;;;5064055;28;19975;-59
2022/09/13 08:44:22;;;;;;;;;;;20.80;99.90;;;;;;5061603;28;20317;-59
2022/09/13 08:46:48;;;;;;;;;;;20.40;99.90;;;;;;5044392;28;19927;-58
2022/09/13 08:49:13;;;;;;;;;;;20.20;99.90;;;;;;5062985;28;19956;-58
2022/09/13 08:51:41;;;;;;;;;;;20.20;99.90;;;;;;5063949;28;21631;-61
2022/09/13 08:54:10;;;;;;;;;;;20.10;99.90;;;;;;5059781;28;19928;-58
2022/09/13 08:56:45;;;;;;;;;;;19.60;99.90;;;;;;5064341;28;19921;-58
2022/09/13 08:59:21;;;;;;;;;;;20.00;99.90;;;;;;5072709;28;19928;-58
2022/09/13 09:01:55;;;;;;;;;;;20.30;99.90;;;;;;5057201;28;19920;-58
2022/09/13 09:04:27;;;;;;;;;;;21.10;99.90;;;;;;5066721;28;19925;-59
2022/09/13 09:07:13;;;;;;;;;;;21.00;99.90;;;;;;5072090;28;20297;-61
2022/09/13 09:09:42;;;;;;;;;;;21.40;99.90;;;;;;5070805;28;19920;-58
2022/09/13 09:12:15;;;;;;;;;;;21.20;99.90;;;;;;5072655;28;19927;-61
2022/09/13 09:14:43;;;;;;;;;;;20.40;99.90;;;;;;5071956;28;19924;-60
2022/09/13 09:17:29;;;;;;;;;;;20.10;99.90;;;;;;5065789;28;20313;-58
2022/09/13 09:20:08;;;;;;;;;;;20.40;99.90;;;;;;5065196;28;19928;-58
2022/09/13 09:22:35;;;;;;;;;;;20.50;99.90;;;;;;5070998;28;19921;-58
2022/09/13 09:25:00;;;;;;;;;;;21.40;99.90;;;;;;5060427;28;20023;-66
2022/09/13 09:27:28;;;;;;;;;;;21.60;99.90;;;;;;5062799;28;20008;-58
2022/09/13 09:29:57;;;;;;;;;;;22.00;99.90;;;;;;5066234;28;19932;-58
2022/09/13 09:32:32;;;;;;;;;;;22.30;99.90;;;;;;5062823;28;20351;-58
2022/09/13 09:34:57;;;;;;;;;;;21.90;99.90;;;;;;5064921;28;19947;-58
2022/09/13 09:37:24;;;;;;;;;;;21.40;99.90;;;;;;5066970;28;19935;-58
2022/09/13 09:39:57;;;;;;;;;;;21.00;99.90;;;;;;5069680;28;20437;-58
2022/09/13 09:42:27;;;;;;;;;;;21.10;99.90;;;;;;5067727;28;19956;-58
2022/09/13 09:45:16;;;;;;;;;;;20.90;99.90;;;;;;5070078;28;19928;-59
2022/09/13 09:47:44;;;;;;;;;;;20.60;99.90;;;;;;5064093;28;19924;-59
2022/09/13 09:50:16;;;;;;;;;;;21.10;99.90;;;;;;5064880;28;20313;-65
2022/09/13 09:52:42;;;;;;;;;;;21.50;99.90;;;;;;5066617;28;20364;-63
2022/09/13 09:55:14;;;;;;;;;;;21.80;99.90;;;;;;5066209;28;20016;-69
2022/09/13 09:58:15;;;;;;;;;;;22.30;99.90;;;;;;5067410;28;20003;-67
2022/09/13 10:00:52;;;;;;;;;;;22.60;99.90;;;;;;5011644;28;19928;-64
2022/09/13 10:03:28;;;;;;;;;;;22.20;99.90;;;;;;5048379;28;20017;-67
2022/09/13 10:06:07;;;;;;;;;;;21.40;99.90;;;;;;5065586;28;19935;-67
2022/09/13 10:08:35;;;;;;;;;;;21.10;99.90;;;;;;5067631;28;20017;-62
2022/09/13 10:11:01;;;;;;;;;;;21.00;99.90;;;;;;5065193;28;19928;-66
2022/09/13 10:13:27;;;;;;;;;;;21.40;99.90;;;;;;5061435;28;19928;-65
2022/09/13 10:15:54;;;;;;;;;;;21.90;99.90;;;;;;5065454;28;20401;-59
2022/09/13 10:18:20;;;;;;;;;;;22.00;99.90;;;;;;5066348;28;19924;-66
2022/09/13 10:21:01;;;;;;;;;;;21.70;99.90;;;;;;5047335;28;19928;-61
2022/09/13 10:23:27;;;;;;;;;;;22.00;99.90;;;;;;5067016;28;19924;-59
2022/09/13 10:26:13;;;;;;;;;;;22.00;99.90;;;;;;5071821;28;19920;-66
2022/09/13 10:28:43;;;;;;;;;;;22.50;99.90;;;;;;5075395;28;19924;-65
2022/09/13 10:31:13;;;;;;;;;;;22.90;99.90;;;;;;5074665;28;19966;-67
2022/09/13 10:33:41;;;;;;;;;;;22.50;99.90;;;;;;5074468;28;19991;-64
2022/09/13 10:36:12;;;;;;;;;;;22.30;99.90;;;;;;5079613;28;19985;-67
2022/09/13 10:38:39;;;;;;;;;;;22.40;99.90;;;;;;5063374;28;20386;-63
2022/09/13 10:41:07;;;;;;;;;;;21.90;99.90;;;;;;5070537;28;19951;-65
2022/09/13 10:43:32;;;;;;;;;;;21.60;99.90;;;;;;5056499;28;20366;-64
2022/09/13 10:46:00;;;;;;;;;;;21.30;99.90;;;;;;5075187;28;19920;-66
2022/09/13 10:48:27;;;;;;;;;;;21.20;99.90;;;;;;5056009;28;19920;-61
2022/09/13 10:51:02;;;;;;;;;;;21.10;99.90;;;;;;5074791;28;19916;-63
2022/09/13 10:53:37;;;;;;;;;;;21.20;99.90;;;;;;5074491;28;20251;-66
2022/09/13 10:56:04;;;;;;;;;;;21.50;99.90;;;;;;5056903;28;19920;-59
2022/09/13 10:58:29;;;;;;;;;;;21.60;99.90;;;;;;5074442;28;19920;-67
2022/09/13 11:01:03;;;;;;;;;;;22.00;99.90;;;;;;5074699;28;19920;-63
2022/09/13 11:03:39;;;;;;;;;;;22.40;99.90;;;;;;5073651;28;19921;-68
2022/09/13 11:06:20;;;;;;;;;;;22.90;99.90;;;;;;5074764;28;20317;-68
2022/09/13 11:08:48;;;;;;;;;;;22.50;99.90;;;;;;5073191;28;19920;-66
2022/09/13 11:11:17;;;;;;;;;;;21.90;99.90;;;;;;5067915;28;19924;-59
2022/09/13 11:13:42;;;;;;;;;;;22.00;99.90;;;;;;5048658;28;19927;-64
2022/09/13 11:16:08;;;;;;;;;;;22.00;99.90;;;;;;5046055;28;20325;-67
2022/09/13 11:18:56;;;;;;;;;;;22.40;99.90;;;;;;5065407;28;19971;-67
2022/09/13 11:21:31;;;;;;;;;;;22.80;99.90;;;;;;5056719;28;20009;-67
2022/09/13 11:24:15;;;;;;;;;;;24.50;99.90;;;;;;5061649;28;20344;-65
2022/09/13 11:26:41;;;;;;;;;;;26.80;99.90;;;;;;5063246;28;19924;-69
2022/09/13 11:29:12;;;;;;;;;;;29.20;98.10;;;;;;5063185;28;19920;-69
2022/09/13 11:31:46;;;;;;;;;;;29.50;95.40;;;;;;5062925;28;19920;-68
2022/09/13 11:34:31;;;;;;;;;;;26.10;95.90;;;;;;5064095;28;19925;-60
2022/09/13 11:37:00;;;;;;;;;;;26.50;97.60;;;;;;5067477;28;19986;-62
2022/09/13 11:39:31;;;;;;;;;;;24.40;96.40;;;;;;5060397;28;19947;-60
2022/09/13 11:42:00;;;;;;;;;;;23.60;97.70;;;;;;5061701;28;19925;-61
2022/09/13 11:44:47;;;;;;;;;;;23.70;98.40;;;;;;5065464;28;20350;-62
2022/09/13 11:47:35;;;;;;;;;;;24.10;98.70;;;;;;5062919;28;19920;-61
2022/09/13 11:50:15;;;;;;;;;;;24.00;98.00;;;;;;5063047;28;19920;-61
2022/09/13 11:52:47;;;;;;;;;;;23.80;97.70;;;;;;5044750;28;20294;-58
2022/09/13 11:55:21;;;;;;;;;;;24.30;98.10;;;;;;5045351;28;19927;-58
2022/09/13 11:57:55;;;;;;;;;;;24.40;98.40;;;;;;5058217;28;19920;-62
2022/09/13 12:00:22;;;;;;;;;;;23.80;97.00;;;;;;5061596;28;20054;-58
2022/09/13 12:02:48;;;;;;;;;;;23.80;96.40;;;;;;5062050;28;19924;-59
2022/09/13 12:05:16;;;;;;;;;;;23.70;96.50;;;;;;5065527;28;19931;-63
2022/09/13 12:07:50;;;;;;;;;;;23.40;97.70;;;;;;5042780;28;19921;-58
2022/09/13 12:10:24;;;;;;;;;;;22.80;97.60;;;;;;5062135;28;19924;-58
2022/09/13 12:12:50;;;;;;;;;;;23.40;99.80;;;;;;5063844;28;20007;-59
2022/09/13 12:15:19;;;;;;;;;;;23.80;99.20;;;;;;5065224;28;19921;-61
2022/09/13 12:17:54;;;;;;;;;;;23.70;98.10;;;;;;5059580;28;20389;-62
2022/09/13 12:20:26;;;;;;;;;;;23.70;99.10;;;;;;5065931;28;19928;-58
2022/09/13 12:22:52;;;;;;;;;;;23.00;99.50;;;;;;5064424;28;19921;-59
2022/09/13 12:25:23;;;;;;;;;;;23.20;99.90;;;;;;5064424;28;19927;-62
2022/09/13 12:27:53;;;;;;;;;;;24.00;99.90;;;;;;5065271;28;19924;-61
2022/09/13 12:30:20;;;;;;;;;;;23.70;99.50;;;;;;5064695;28;20003;-67
2022/09/13 12:32:47;;;;;;;;;;;23.60;99.50;;;;;;5063224;28;19929;-63
2022/09/13 12:35:27;;;;;;;;;;;24.30;99.10;;;;;;5070272;28;19920;-66
2022/09/13 12:38:11;;;;;;;;;;;24.60;98.40;;;;;;5065209;28;19930;-59
2022/09/13 12:40:39;;;;;;;;;;;24.40;98.80;;;;;;5063739;28;20377;-64
2022/09/13 12:43:14;;;;;;;;;;;24.60;98.30;;;;;;5065449;28;19932;-67
2022/09/13 12:45:58;;;;;;;;;;;25.70;97.50;;;;;;5065189;28;19943;-66
2022/09/13 12:48:35;;;;;;;;;;;26.50;96.90;;;;;;5064294;28;19921;-62
2022/09/13 12:51:01;;;;;;;;;;;25.70;96.50;;;;;;5064343;28;20646;-61
2022/09/13 12:53:35;;;;;;;;;;;24.20;97.10;;;;;;5064856;28;19928;-62
2022/09/13 12:56:04;;;;;;;;;;;25.80;98.10;;;;;;5063068;28;20366;-63
2022/09/13 12:58:36;;;;;;;;;;;27.10;97.50;;;;;;5064182;28;19928;-67
2022/09/13 13:01:08;;;;;;;;;;;27.90;96.60;;;;;;5065412;28;20274;-59
2022/09/13 13:03:36;;;;;;;;;;;27.20;95.90;;;;;;5063155;28;19932;-59
2022/09/13 13:06:08;;;;;;;;;;;25.90;96.70;;;;;;5072450;28;20015;-60
2022/09/13 13:08:34;;;;;;;;;;;25.00;97.10;;;;;;5061238;28;20054;-60
2022/09/13 13:11:07;;;;;;;;;;;24.10;98.80;;;;;;5064715;28;19931;-61
2022/09/13 13:13:34;;;;;;;;;;;25.30;98.30;;;;;;5063215;28;19920;-58
2022/09/13 13:16:05;;;;;;;;;;;25.60;98.00;;;;;;5065396;28;19995;-62
2022/09/13 13:18:43;;;;;;;;;;;25.00;97.50;;;;;;5070984;28;19926;-66
2022/09/13 13:21:22;;;;;;;;;;;24.40;98.30;;;;;;5067741;28;19969;-61
2022/09/13 13:24:07;;;;;;;;;;;24.30;98.20;;;;;;5062991;28;19962;-60
2022/09/13 13:26:44;;;;;;;;;;;23.10;99.40;;;;;;5064019;28;19920;-61
2022/09/13 13:29:12;;;;;;;;;;;23.00;99.50;;;;;;5067448;28;20278;-60
2022/09/13 13:31:38;;;;;;;;;;;22.80;99.90;;;;;;5063953;28;19935;-66
2022/09/13 13:34:13;;;;;;;;;;;22.90;99.90;;;;;;5072391;28;19928;-63
2022/09/13 13:36:38;;;;;;;;;;;23.00;99.90;;;;;;5072853;28;19990;-64
2022/09/13 13:39:24;;;;;;;;;;;22.50;99.90;;;;;;5051438;28;20447;-60
2022/09/13 13:42:08;;;;;;;;;;;22.40;99.90;;;;;;5014395;28;19924;-66
2022/09/13 13:44:34;;;;;;;;;;;22.10;99.90;;;;;;5069697;28;20484;-63
2022/09/13 13:47:05;;;;;;;;;;;22.10;99.90;;;;;;5067865;28;20042;-65
2022/09/13 13:49:31;;;;;;;;;;;22.30;99.90;;;;;;5071448;28;19920;-66
2022/09/13 13:54:40;;;;;;;;;;;22.30;99.90;;;;;;5071277;28;19924;-57
2022/09/13 13:57:24;;;;;;;;;;;22.30;99.90;;;;;;5071976;28;19920;-57
2022/09/13 13:59:51;;;;;;;;;;;22.40;99.90;;;;;;5064244;28;19978;-57
2022/09/13 14:02:20;;;;;;;;;;;22.50;99.90;;;;;;5071677;28;19920;-57
2022/09/13 14:04:53;;;;;;;;;;;22.40;99.70;;;;;;5064917;28;19927;-57
2022/09/13 14:07:18;;;;;;;;;;;22.10;99.90;;;;;;5063950;28;20008;-57
2022/09/13 14:09:55;;;;;;;;;;;22.30;99.90;;;;;;5044650;28;20014;-57
2022/09/13 14:12:24;;;;;;;;;;;22.20;99.90;;;;;;5064941;28;19924;-57
2022/09/13 14:15:09;;;;;;;;;;;22.20;99.90;;;;;;5064001;28;19964;-57
2022/09/13 14:17:53;;;;;;;;;;;22.10;99.90;;;;;;5064629;28;19955;-57
2022/09/13 14:20:19;;;;;;;;;;;22.00;99.90;;;;;;5061536;28;19925;-57
2022/09/13 14:22:45;;;;;;;;;;;21.60;99.90;;;;;;5041889;28;20498;-58
2022/09/13 14:25:14;;;;;;;;;;;21.30;99.90;;;;;;5039192;28;19947;-57
2022/09/13 14:27:42;;;;;;;;;;;21.40;99.90;;;;;;5054086;28;20011;-57
2022/09/13 14:30:17;;;;;;;;;;;21.80;99.90;;;;;;5068497;28;19920;-57
2022/09/13 14:32:44;;;;;;;;;;;22.00;99.90;;;;;;5066959;28;19976;-57
2022/09/13 14:35:22;;;;;;;;;;;21.80;99.90;;;;;;5058315;28;20369;-57